ADDS TAF Data INFO
IDs: Format: Raw Decoded Include METARs

Data at: 0815 UTC 18 Nov 2017

KORF 180540Z 1806/1906 23005KT P6SM SKC
  FM181000 20007KT P6SM SKC
  FM181400 21012G20KT P6SM SCT200
  FM181800 21017G26KT P6SM SCT200